createdAt,value
2023-06-27T00:00:21.892Z,4454.00
2023-06-27T00:01:21.909Z,4452.00
2023-06-27T00:02:22.060Z,4443.00
2023-06-27T00:03:21.866Z,4443.00
2023-06-27T00:04:21.821Z,4440.00
2023-06-27T00:05:21.788Z,4441.00
2023-06-27T00:06:21.782Z,4443.00
2023-06-27T00:07:21.785Z,4443.00
2023-06-27T00:08:21.740Z,4443.00
2023-06-27T00:09:21.729Z,4447.00
2023-06-27T00:10:21.729Z,4448.00
2023-06-27T00:11:21.670Z,4441.00
2023-06-27T00:12:21.648Z,4428.00
2023-06-27T00:13:21.633Z,4428.00
2023-06-27T00:14:21.598Z,4424.00
2023-06-27T00:15:21.580Z,4412.00
2023-06-27T00:16:21.573Z,4417.00
2023-06-27T00:17:21.553Z,4414.00
2023-06-27T00:18:21.510Z,4406.00
2023-06-27T00:19:21.610Z,4407.00
2023-06-27T00:20:21.471Z,4407.00
2023-06-27T00:21:21.446Z,4407.00
2023-06-27T00:22:21.416Z,4409.00
2023-06-27T00:23:21.413Z,4411.00
2023-06-27T00:24:21.386Z,4410.00
2023-06-27T00:25:21.363Z,4424.00
2023-06-27T00:26:21.351Z,4413.00
2023-06-27T00:27:21.315Z,4402.00
2023-06-27T00:28:21.296Z,4392.00
2023-06-27T00:29:21.280Z,4397.00
2023-06-27T00:30:21.247Z,4382.00
2023-06-27T00:31:21.297Z,4398.00
2023-06-27T00:32:21.241Z,4391.00
2023-06-27T00:33:21.196Z,4388.00
2023-06-27T00:34:21.184Z,4385.00
2023-06-27T00:35:21.152Z,4367.00
2023-06-27T00:36:21.153Z,4365.00
2023-06-27T00:37:21.197Z,4362.00
2023-06-27T00:38:21.205Z,4366.00
2023-06-27T00:39:21.232Z,4360.00
2023-06-27T00:40:21.260Z,4362.00
2023-06-27T00:41:21.265Z,4355.00
2023-06-27T00:42:21.306Z,4342.00
2023-06-27T00:43:21.348Z,4354.00
2023-06-27T00:44:21.338Z,4346.00
2023-06-27T00:45:21.374Z,4339.00
2023-06-27T00:46:21.386Z,4342.00
2023-06-27T00:47:21.414Z,4338.00
2023-06-27T00:48:21.444Z,4335.00
2023-06-27T00:49:21.462Z,4332.00
2023-06-27T00:50:21.474Z,4315.00
2023-06-27T00:51:21.493Z,4327.00
2023-06-27T00:52:21.529Z,4318.00
2023-06-27T00:53:21.552Z,4318.00
2023-06-27T00:54:21.572Z,4309.00
2023-06-27T00:55:21.597Z,4301.00
2023-06-27T00:56:21.627Z,4303.00
2023-06-27T00:57:21.646Z,4300.00
2023-06-27T00:58:21.632Z,4301.00
2023-06-27T00:59:21.623Z,4304.00
2023-06-27T01:00:21.595Z,4304.00
2023-06-27T01:01:21.582Z,4304.00
2023-06-27T01:02:21.560Z,4304.00
2023-06-27T01:03:21.578Z,4299.00
2023-06-27T01:04:21.494Z,4304.00
2023-06-27T01:05:21.480Z,4302.00
2023-06-27T01:06:21.461Z,4309.00
2023-06-27T01:07:21.562Z,4277.00
2023-06-27T01:08:21.440Z,4285.00
2023-06-27T01:09:21.417Z,4279.00
2023-06-27T01:10:21.403Z,4281.00
2023-06-27T01:11:21.390Z,4267.00
2023-06-27T01:12:21.455Z,4272.00
2023-06-27T01:13:21.480Z,4269.00
2023-06-27T01:14:21.483Z,4260.00
2023-06-27T01:15:21.518Z,4264.00
2023-06-27T01:16:21.534Z,4260.00
2023-06-27T01:17:21.612Z,4263.00
2023-06-27T01:18:21.607Z,4249.00
2023-06-27T01:19:21.637Z,4251.00
2023-06-27T01:20:21.674Z,4250.00
2023-06-27T01:21:21.700Z,4255.00
2023-06-27T01:22:21.736Z,4248.00
2023-06-27T01:23:21.776Z,4244.00
2023-06-27T01:24:21.787Z,4232.00
2023-06-27T01:25:21.822Z,4238.00
2023-06-27T01:26:21.864Z,4232.00
2023-06-27T01:27:21.881Z,4220.00
2023-06-27T01:28:21.894Z,4232.00
2023-06-27T01:29:21.930Z,4216.00
2023-06-27T01:30:21.983Z,4230.00
2023-06-27T01:31:22.047Z,4214.00
2023-06-27T01:32:22.056Z,4220.00
2023-06-27T01:33:22.003Z,4221.00
2023-06-27T01:34:21.975Z,4220.00
2023-06-27T01:35:21.959Z,4221.00
2023-06-27T01:36:21.950Z,4215.00
2023-06-27T01:37:21.926Z,4215.00
2023-06-27T01:38:21.936Z,4216.00
2023-06-27T01:39:21.891Z,4215.00
2023-06-27T01:40:21.864Z,4203.00
2023-06-27T01:41:21.946Z,4200.00
2023-06-27T01:42:21.840Z,4197.00
2023-06-27T01:43:21.841Z,4189.00
2023-06-27T01:44:21.811Z,4182.00
2023-06-27T01:45:21.824Z,4181.00
2023-06-27T01:46:21.961Z,4184.00
2023-06-27T01:47:21.910Z,4185.00
2023-06-27T01:48:21.958Z,4178.00
2023-06-27T01:49:21.951Z,4188.00
2023-06-27T01:50:21.992Z,4167.00
2023-06-27T01:51:22.024Z,4178.00
2023-06-27T01:52:22.053Z,4172.00
2023-06-27T01:53:22.094Z,4166.00
2023-06-27T01:54:22.122Z,4167.00
2023-06-27T01:55:22.151Z,4162.00
2023-06-27T01:56:22.190Z,4157.00
2023-06-27T01:57:22.235Z,4155.00
2023-06-27T01:58:22.259Z,4152.00
2023-06-27T01:59:22.293Z,4143.00
2023-06-27T02:00:22.337Z,4147.00
2023-06-27T02:01:22.419Z,4145.00
2023-06-27T02:02:22.456Z,4145.00
2023-06-27T02:03:22.494Z,4140.00
2023-06-27T02:04:22.454Z,4139.00
2023-06-27T02:05:22.499Z,4127.00
2023-06-27T02:06:22.523Z,4126.00
2023-06-27T02:07:22.599Z,4131.00
2023-06-27T02:08:22.629Z,4113.00
2023-06-27T02:09:22.636Z,4117.00
2023-06-27T02:10:22.676Z,4106.00
2023-06-27T02:11:22.692Z,4109.00
2023-06-27T02:12:22.733Z,4127.00
2023-06-27T02:13:22.778Z,4116.00
2023-06-27T02:14:22.829Z,4106.00
2023-06-27T02:15:22.838Z,4110.00
2023-06-27T02:16:22.897Z,4102.00
2023-06-27T02:17:22.938Z,4099.00
2023-06-27T02:18:22.955Z,4092.00
2023-06-27T02:19:22.986Z,4095.00
2023-06-27T02:20:23.019Z,4089.00
2023-06-27T02:21:23.058Z,4092.00
2023-06-27T02:22:23.113Z,4083.00
2023-06-27T02:23:23.162Z,4091.00
2023-06-27T02:24:23.197Z,4090.00
2023-06-27T02:25:23.305Z,4079.00
2023-06-27T02:26:23.262Z,4076.00
2023-06-27T02:27:23.309Z,4075.00
2023-06-27T02:28:23.338Z,4071.00
2023-06-27T02:29:23.381Z,4060.00
2023-06-27T02:30:23.413Z,4066.00
2023-06-27T02:31:23.555Z,4061.00
2023-06-27T02:32:23.528Z,4057.00
2023-06-27T02:33:23.539Z,4057.00
2023-06-27T02:34:23.567Z,4056.00
2023-06-27T02:35:23.612Z,4054.00
2023-06-27T02:36:23.644Z,4047.00
2023-06-27T02:37:23.700Z,4047.00
2023-06-27T02:38:23.743Z,4043.00
2023-06-27T02:39:23.794Z,4036.00
2023-06-27T02:40:23.831Z,4030.00
2023-06-27T02:41:23.873Z,4031.00
2023-06-27T02:42:23.932Z,4039.00
2023-06-27T02:43:23.976Z,4028.00
2023-06-27T02:44:24.004Z,4026.00
2023-06-27T02:45:24.048Z,4028.00
2023-06-27T02:46:24.198Z,4009.00
2023-06-27T02:47:24.169Z,4017.00
2023-06-27T02:48:24.187Z,4016.00
2023-06-27T02:49:24.231Z,4002.00
2023-06-27T02:50:24.285Z,4007.00
2023-06-27T02:51:24.322Z,4003.00
2023-06-27T02:52:24.360Z,4008.00
2023-06-27T02:53:24.439Z,4005.00
2023-06-27T02:54:24.435Z,3992.00
2023-06-27T02:55:24.490Z,3997.00
2023-06-27T02:56:24.519Z,3990.00
2023-06-27T02:57:24.573Z,3981.00
2023-06-27T02:58:24.611Z,3981.00
2023-06-27T02:59:24.663Z,3975.00
2023-06-27T03:00:24.682Z,3978.00
2023-06-27T03:01:24.891Z,3977.00
2023-06-27T03:02:24.824Z,3970.00
2023-06-27T03:03:24.950Z,3971.00
2023-06-27T03:04:24.876Z,3967.00
2023-06-27T03:05:24.904Z,3965.00
2023-06-27T03:06:24.929Z,3969.00
2023-06-27T03:07:25.108Z,3961.00
2023-06-27T03:08:25.021Z,3938.00
2023-06-27T03:09:25.040Z,3915.00
2023-06-27T03:10:25.109Z,3869.00
2023-06-27T03:11:25.134Z,3815.00
2023-06-27T03:12:25.180Z,3742.00
2023-06-27T03:13:25.242Z,3681.00
2023-06-27T03:14:25.286Z,3636.00
2023-06-27T03:15:25.315Z,3577.00
2023-06-27T03:16:25.338Z,3527.00
2023-06-27T03:17:25.386Z,3479.00
2023-06-27T03:18:25.346Z,3419.00
2023-06-27T03:19:34.439Z,3391.00
2023-06-27T03:20:26.336Z,3375.00
2023-06-27T03:21:25.305Z,3332.00
2023-06-27T03:22:25.286Z,3275.00
2023-06-27T03:23:25.274Z,3256.00
2023-06-27T03:24:25.255Z,3210.00
2023-06-27T03:25:25.273Z,3198.00
2023-06-27T03:26:25.240Z,3133.00
2023-06-27T03:27:25.207Z,3108.00
2023-06-27T03:28:25.208Z,3096.00
2023-06-27T03:29:25.198Z,3047.00
2023-06-27T03:30:25.182Z,3006.00
2023-06-27T03:31:25.196Z,2986.00
2023-06-27T03:32:25.203Z,2952.00
2023-06-27T03:33:25.136Z,2932.00
2023-06-27T03:34:25.117Z,2923.00
2023-06-27T03:35:25.111Z,2894.00
2023-06-27T03:36:25.086Z,2884.00
2023-06-27T03:37:25.074Z,2870.00
2023-06-27T03:38:25.087Z,2882.00
2023-06-27T03:39:25.039Z,2843.00
2023-06-27T03:40:25.028Z,2834.00
2023-06-27T03:41:25.009Z,2825.00
2023-06-27T03:42:24.980Z,2810.00
2023-06-27T03:43:24.967Z,2780.00
2023-06-27T03:44:24.995Z,2750.00
2023-06-27T03:45:24.935Z,2738.00
2023-06-27T03:46:24.915Z,2695.00
2023-06-27T03:47:24.907Z,2665.00
2023-06-27T03:48:24.903Z,2629.00
2023-06-27T03:49:24.871Z,2618.00
2023-06-27T03:50:24.877Z,2573.00
2023-06-27T03:51:24.858Z,2529.00
2023-06-27T03:52:24.841Z,2506.00
2023-06-27T03:53:24.822Z,2488.00
2023-06-27T03:54:24.811Z,2459.00
2023-06-27T03:55:24.794Z,2457.00
2023-06-27T03:56:24.790Z,2434.00
2023-06-27T03:57:24.783Z,2358.00
2023-06-27T03:58:24.790Z,2318.00
2023-06-27T03:59:24.749Z,2240.00
2023-06-27T04:00:24.739Z,2186.00
2023-06-27T04:01:24.726Z,2130.00
2023-06-27T04:02:24.808Z,2099.00
2023-06-27T04:03:24.758Z,2042.00
2023-06-27T04:04:24.804Z,2028.00
2023-06-27T04:05:24.680Z,2010.00
2023-06-27T04:06:24.679Z,1973.00
2023-06-27T04:07:24.697Z,1939.00
2023-06-27T04:08:24.672Z,1919.00
2023-06-27T04:09:24.649Z,1886.00
2023-06-27T04:10:24.633Z,1869.00
2023-06-27T04:11:24.623Z,1860.00
2023-06-27T04:12:24.628Z,1853.00
2023-06-27T04:13:24.603Z,1840.00
2023-06-27T04:14:26.232Z,1841.00
2023-06-27T04:15:24.591Z,1829.00
2023-06-27T04:16:24.569Z,1856.00
2023-06-27T04:17:24.612Z,1857.00
2023-06-27T04:18:24.566Z,1857.00
2023-06-27T04:19:24.580Z,1859.00
2023-06-27T04:20:24.531Z,1861.00
2023-06-27T04:21:24.527Z,1882.00
2023-06-27T04:22:24.512Z,1894.00
2023-06-27T04:23:24.494Z,1893.00
2023-06-27T04:24:24.474Z,1893.00
2023-06-27T04:25:24.469Z,1914.00
2023-06-27T04:26:24.453Z,1933.00
2023-06-27T04:27:24.464Z,1901.00
2023-06-27T04:28:24.416Z,1906.00
2023-06-27T04:29:24.432Z,1903.00
2023-06-27T04:30:24.388Z,1879.00
2023-06-27T04:31:24.402Z,1889.00
2023-06-27T04:32:24.379Z,1909.00
2023-06-27T04:33:24.342Z,1906.00
2023-06-27T04:34:24.335Z,1928.00
2023-06-27T04:35:24.305Z,1902.00
2023-06-27T04:36:24.301Z,1952.00
2023-06-27T04:37:24.284Z,1954.00
2023-06-27T04:38:24.266Z,1954.00
2023-06-27T04:39:24.252Z,1978.00
2023-06-27T04:40:24.289Z,2002.00
2023-06-27T04:41:24.287Z,2011.00
2023-06-27T04:42:24.301Z,2038.00
2023-06-27T04:43:24.320Z,2050.00
2023-06-27T04:44:24.343Z,2069.00
2023-06-27T04:45:24.336Z,2071.00
2023-06-27T04:46:24.351Z,2072.00
2023-06-27T04:47:24.323Z,2076.00
2023-06-27T04:48:24.312Z,2073.00
2023-06-27T04:49:24.289Z,2080.00
2023-06-27T04:50:24.280Z,2074.00
2023-06-27T04:51:24.265Z,2088.00
2023-06-27T04:52:24.266Z,2110.00
2023-06-27T04:53:24.249Z,2148.00
2023-06-27T04:54:24.225Z,2216.00
2023-06-27T04:55:24.212Z,2228.00
2023-06-27T04:56:24.216Z,2221.00
2023-06-27T04:57:24.188Z,2226.00
2023-06-27T04:58:24.192Z,2222.00
2023-06-27T04:59:24.193Z,2249.00
2023-06-27T05:00:24.156Z,2252.00
2023-06-27T05:01:24.268Z,2269.00
2023-06-27T05:02:24.153Z,2270.00
2023-06-27T05:03:24.118Z,2271.00
2023-06-27T05:04:24.146Z,2272.00
2023-06-27T05:05:24.076Z,2269.00
2023-06-27T05:06:24.078Z,2246.00
2023-06-27T05:07:24.094Z,2202.00
2023-06-27T05:08:24.077Z,2168.00
2023-06-27T05:09:24.038Z,2155.00
2023-06-27T05:10:24.008Z,2131.00
2023-06-27T05:11:24.037Z,2131.00
2023-06-27T05:12:23.979Z,2133.00
2023-06-27T05:13:23.979Z,2136.00
2023-06-27T05:14:23.954Z,2116.00
2023-06-27T05:15:23.962Z,2116.00
2023-06-27T05:16:23.918Z,2097.00
2023-06-27T05:17:23.978Z,2086.00
2023-06-27T05:18:23.907Z,2096.00
2023-06-27T05:19:23.882Z,2087.00
2023-06-27T05:20:23.909Z,2087.00
2023-06-27T05:21:23.880Z,2080.00
2023-06-27T05:22:23.854Z,2088.00
2023-06-27T05:23:23.823Z,2093.00
2023-06-27T05:24:23.821Z,2093.00
2023-06-27T05:25:23.789Z,2098.00
2023-06-27T05:26:23.796Z,2097.00
2023-06-27T05:27:23.791Z,2079.00
2023-06-27T05:28:23.771Z,2068.00
2023-06-27T05:29:26.957Z,2071.00
2023-06-27T05:30:23.784Z,2072.00
2023-06-27T05:31:23.827Z,2079.00
2023-06-27T05:32:24.758Z,2101.00
2023-06-27T05:33:23.685Z,2075.00
2023-06-27T05:34:23.684Z,2095.00
2023-06-27T05:35:23.686Z,2163.00
2023-06-27T05:36:23.659Z,2290.00
2023-06-27T05:37:23.701Z,2493.00
2023-06-27T05:38:23.616Z,2577.00
2023-06-27T05:39:23.722Z,2615.00
2023-06-27T05:40:23.619Z,2693.00
2023-06-27T05:41:23.591Z,2695.00
2023-06-27T05:42:23.691Z,2701.00
2023-06-27T05:43:23.668Z,2729.00
2023-06-27T05:44:23.548Z,2751.00
2023-06-27T05:45:23.528Z,2837.00
2023-06-27T05:46:23.521Z,2888.00
2023-06-27T05:47:23.510Z,2916.00
2023-06-27T05:48:23.493Z,2953.00
2023-06-27T05:49:23.462Z,2973.00
2023-06-27T05:50:23.437Z,3016.00
2023-06-27T05:51:23.459Z,3077.00
2023-06-27T05:52:23.424Z,3139.00
2023-06-27T05:53:23.473Z,3179.00
2023-06-27T05:54:23.473Z,3210.00
2023-06-27T05:55:23.537Z,3196.00
2023-06-27T05:56:23.588Z,3126.00
2023-06-27T05:57:23.626Z,2674.00
2023-06-27T05:58:23.680Z,2214.00
2023-06-27T05:59:23.772Z,1954.00
2023-06-27T06:00:23.781Z,1703.00
2023-06-27T06:01:23.758Z,1526.00
2023-06-27T06:02:23.863Z,1328.00
2023-06-27T06:03:23.877Z,1235.00
2023-06-27T06:04:23.866Z,1178.00
2023-06-27T06:05:23.761Z,1029.00
2023-06-27T06:06:23.795Z,898.00
2023-06-27T06:07:23.892Z,815.00
2023-06-27T06:08:23.809Z,700.00
2023-06-27T06:09:23.833Z,603.00
2023-06-27T06:10:23.877Z,578.00
2023-06-27T06:11:23.909Z,569.00
2023-06-27T06:12:23.968Z,546.00
2023-06-27T06:13:24.005Z,523.00
2023-06-27T06:14:24.056Z,578.00
2023-06-27T06:15:24.085Z,643.00
2023-06-27T06:16:24.135Z,766.00
2023-06-27T06:17:24.198Z,880.00
2023-06-27T06:18:24.187Z,986.00
2023-06-27T06:19:24.228Z,1067.00
2023-06-27T06:20:24.235Z,1012.00
2023-06-27T06:21:24.222Z,1016.00
2023-06-27T06:22:24.198Z,1025.00
2023-06-27T06:23:24.188Z,1018.00
2023-06-27T06:24:24.215Z,1048.00
2023-06-27T06:25:24.180Z,1022.00
2023-06-27T06:26:24.135Z,1066.00
2023-06-27T06:27:24.115Z,1139.00
2023-06-27T06:28:24.106Z,1245.00
2023-06-27T06:29:24.105Z,1025.00
2023-06-27T06:30:24.151Z,1068.00
2023-06-27T06:31:24.120Z,1134.00
2023-06-27T06:32:24.102Z,1148.00
2023-06-27T06:33:24.020Z,1222.00
2023-06-27T06:34:24.016Z,1223.00
2023-06-27T06:35:23.986Z,1217.00
2023-06-27T06:36:23.983Z,1169.00
2023-06-27T06:37:24.058Z,1154.00
2023-06-27T06:38:23.964Z,1185.00
2023-06-27T06:39:23.936Z,1206.00
2023-06-27T06:40:23.917Z,1118.00
2023-06-27T06:41:23.914Z,1106.00
2023-06-27T06:42:23.927Z,645.00
2023-06-27T06:43:23.918Z,585.00
2023-06-27T06:44:23.887Z,534.00
2023-06-27T06:45:23.831Z,481.00
2023-06-27T06:46:23.861Z,469.00
2023-06-27T06:47:23.943Z,438.00
2023-06-27T06:48:23.805Z,400.00
2023-06-27T06:49:23.809Z,400.00
2023-06-27T06:50:23.781Z,400.00
2023-06-27T06:51:23.766Z,428.00
2023-06-27T06:52:23.775Z,473.00
2023-06-27T06:53:23.774Z,512.00
2023-06-27T06:54:23.737Z,525.00
2023-06-27T06:55:23.743Z,513.00
2023-06-27T06:56:23.789Z,502.00
2023-06-27T06:57:23.843Z,500.00
2023-06-27T06:58:23.894Z,500.00
2023-06-27T06:59:23.989Z,516.00
2023-06-27T07:00:24.006Z,528.00
2023-06-27T07:01:24.073Z,519.00
2023-06-27T07:02:24.083Z,507.00
2023-06-27T07:03:24.102Z,512.00
2023-06-27T07:04:24.196Z,497.00
2023-06-27T07:05:24.228Z,506.00
2023-06-27T07:06:24.288Z,500.00
2023-06-27T07:07:24.353Z,501.00
2023-06-27T07:08:24.276Z,504.00
2023-06-27T07:09:24.319Z,520.00
2023-06-27T07:10:24.258Z,537.00
2023-06-27T07:11:24.250Z,503.00
2023-06-27T07:12:24.246Z,508.00
2023-06-27T07:13:24.255Z,517.00
2023-06-27T07:14:24.230Z,538.00
2023-06-27T07:15:24.217Z,571.00
2023-06-27T07:16:24.209Z,564.00
2023-06-27T07:17:24.226Z,563.00
2023-06-27T07:18:24.263Z,571.00
2023-06-27T07:19:24.162Z,576.00
2023-06-27T07:20:24.191Z,566.00
2023-06-27T07:21:24.262Z,524.00
2023-06-27T07:22:24.268Z,519.00
2023-06-27T07:23:24.238Z,493.00
2023-06-27T07:24:24.234Z,496.00
2023-06-27T07:25:24.206Z,485.00
2023-06-27T07:26:24.210Z,522.00
2023-06-27T07:27:24.209Z,510.00
2023-06-27T07:28:24.174Z,478.00
2023-06-27T07:29:24.171Z,530.00
2023-06-27T07:30:24.162Z,537.00
2023-06-27T07:31:24.202Z,528.00
2023-06-27T07:32:24.190Z,557.00
2023-06-27T07:33:24.213Z,500.00
2023-06-27T07:34:24.248Z,520.00
2023-06-27T07:35:24.285Z,517.00
2023-06-27T07:36:24.367Z,550.00
2023-06-27T07:37:24.370Z,532.00
2023-06-27T07:38:24.431Z,641.00
2023-06-27T07:39:24.489Z,744.00
2023-06-27T07:40:24.504Z,837.00
2023-06-27T07:41:24.573Z,789.00
2023-06-27T07:42:24.555Z,877.00
2023-06-27T07:43:24.571Z,736.00
2023-06-27T07:44:24.647Z,949.00
2023-06-27T07:45:24.614Z,1081.00
2023-06-27T07:46:24.622Z,1245.00
2023-06-27T07:47:24.714Z,1323.00
2023-06-27T07:48:24.607Z,1326.00
2023-06-27T07:49:24.654Z,1358.00
2023-06-27T07:50:24.580Z,1456.00
2023-06-27T07:51:24.571Z,1511.00
2023-06-27T07:52:24.587Z,1752.00
2023-06-27T07:53:24.551Z,1906.00
2023-06-27T07:54:25.980Z,1906.00
2023-06-27T07:55:24.502Z,1925.00
2023-06-27T07:56:24.498Z,1996.00
2023-06-27T07:57:24.481Z,2146.00
2023-06-27T07:58:24.467Z,2380.00
2023-06-27T07:59:24.481Z,2483.00
2023-06-27T08:00:24.522Z,2531.00
2023-06-27T08:01:24.477Z,2604.00
2023-06-27T08:02:24.522Z,2365.00
2023-06-27T08:03:24.480Z,2513.00
2023-06-27T08:04:24.416Z,2552.00
2023-06-27T08:05:24.376Z,2458.00
2023-06-27T08:06:24.353Z,2499.00
2023-06-27T08:07:24.420Z,2561.00
2023-06-27T08:08:24.342Z,2490.00
2023-06-27T08:09:24.325Z,2446.00
2023-06-27T08:10:24.466Z,2541.00
2023-06-27T08:11:24.301Z,2644.00
2023-06-27T08:12:24.278Z,2706.00
2023-06-27T08:13:24.254Z,2559.00
2023-06-27T08:14:24.245Z,2548.00
2023-06-27T08:15:24.219Z,2391.00
2023-06-27T08:16:24.215Z,2577.00
2023-06-27T08:17:24.248Z,2578.00
2023-06-27T08:18:24.182Z,2593.00
2023-06-27T08:19:24.167Z,2648.00
2023-06-27T08:20:24.153Z,2734.00
2023-06-27T08:21:24.134Z,2886.00
2023-06-27T08:22:24.137Z,2707.00
2023-06-27T08:23:24.149Z,2749.00
2023-06-27T08:24:24.122Z,2716.00
2023-06-27T08:25:24.134Z,2612.00
2023-06-27T08:26:24.194Z,2709.00
2023-06-27T08:27:24.201Z,2601.00
2023-06-27T08:28:24.217Z,2438.00
2023-06-27T08:29:24.207Z,2380.00
2023-06-27T08:30:24.320Z,2292.00
2023-06-27T08:31:24.381Z,2272.00
2023-06-27T08:32:24.236Z,2197.00
2023-06-27T08:33:24.190Z,2168.00
2023-06-27T08:34:24.194Z,2189.00
2023-06-27T08:35:24.129Z,2186.00
2023-06-27T08:36:24.137Z,2040.00
2023-06-27T08:37:24.092Z,1901.00
2023-06-27T08:38:24.524Z,1833.00
2023-06-27T08:39:24.202Z,1780.00
2023-06-27T08:40:24.392Z,1752.00
2023-06-27T08:41:24.369Z,1696.00
2023-06-27T08:42:24.370Z,1597.00
2023-06-27T08:43:24.426Z,1544.00
2023-06-27T08:44:24.518Z,1554.00
2023-06-27T08:45:24.505Z,1550.00
2023-06-27T08:46:24.550Z,1532.00
2023-06-27T08:47:24.678Z,1526.00
2023-06-27T08:48:24.654Z,1476.00
2023-06-27T08:49:24.731Z,1532.00
2023-06-27T08:50:24.764Z,1464.00
2023-06-27T08:51:24.831Z,1394.00
2023-06-27T08:52:24.864Z,1477.00
2023-06-27T08:53:24.942Z,1537.00
2023-06-27T08:54:24.980Z,1514.00
2023-06-27T08:55:25.004Z,1407.00
2023-06-27T08:56:25.145Z,1326.00
2023-06-27T08:57:25.113Z,1297.00
2023-06-27T08:58:25.164Z,1303.00
2023-06-27T08:59:25.218Z,1287.00
2023-06-27T09:00:25.222Z,1279.00
2023-06-27T09:01:25.284Z,1252.00
2023-06-27T09:02:25.338Z,1266.00
2023-06-27T09:03:25.391Z,1245.00
2023-06-27T09:04:25.288Z,1224.00
2023-06-27T09:05:25.260Z,1227.00
2023-06-27T09:06:25.304Z,1244.00
2023-06-27T09:07:25.349Z,1193.00
2023-06-27T09:08:25.287Z,1196.00
2023-06-27T09:09:25.304Z,1174.00
2023-06-27T09:10:25.282Z,1130.00
2023-06-27T09:11:25.313Z,1116.00
2023-06-27T09:12:25.277Z,1168.00
2023-06-27T09:13:25.370Z,1156.00
2023-06-27T09:14:25.297Z,1169.00
2023-06-27T09:15:25.320Z,1208.00
2023-06-27T09:16:25.401Z,1177.00
2023-06-27T09:17:25.316Z,1158.00
2023-06-27T09:18:25.302Z,1161.00
2023-06-27T09:19:25.332Z,1187.00
2023-06-27T09:20:25.314Z,1196.00
2023-06-27T09:21:25.308Z,1191.00
2023-06-27T09:22:25.291Z,1184.00
2023-06-27T09:23:25.263Z,1175.00
2023-06-27T09:24:25.295Z,1166.00
2023-06-27T09:25:25.231Z,1184.00
2023-06-27T09:26:25.231Z,1225.00
2023-06-27T09:27:25.209Z,1259.00
2023-06-27T09:28:25.243Z,1283.00
2023-06-27T09:29:25.302Z,1240.00
2023-06-27T09:30:25.348Z,1317.00
2023-06-27T09:31:25.384Z,1342.00
2023-06-27T09:32:26.237Z,1340.00
2023-06-27T09:33:27.559Z,1344.00
2023-06-27T09:34:25.561Z,1351.00
2023-06-27T09:38:44.491Z,1395.00
2023-06-27T09:39:25.565Z,1344.00
2023-06-27T09:40:27.904Z,1359.00
2023-06-27T09:41:25.742Z,1352.00
2023-06-27T09:42:25.784Z,1393.00
2023-06-27T09:43:25.843Z,1476.00
2023-06-27T09:44:25.859Z,1536.00
2023-06-27T09:45:25.860Z,1692.00
2023-06-27T09:46:26.873Z,1352.00
2023-06-27T09:47:25.901Z,1356.00
2023-06-27T09:48:25.838Z,1237.00
2023-06-27T09:49:25.845Z,1132.00
2023-06-27T09:50:25.806Z,1000.00
2023-06-27T09:51:25.790Z,917.00
2023-06-27T09:52:25.768Z,810.00
2023-06-27T09:53:26.620Z,713.00
2023-06-27T09:54:25.742Z,720.00
2023-06-27T09:55:25.731Z,681.00
2023-06-27T09:56:25.711Z,699.00
2023-06-27T09:57:25.783Z,645.00
2023-06-27T09:58:25.826Z,645.00
2023-06-27T09:59:26.004Z,631.00
2023-06-27T10:00:26.092Z,616.00
2023-06-27T10:01:25.936Z,603.00
2023-06-27T10:02:25.996Z,599.00
2023-06-27T10:03:26.038Z,617.00
2023-06-27T10:05:27.517Z,583.00
2023-06-27T10:06:26.042Z,585.00
2023-06-27T10:07:26.042Z,597.00
2023-06-27T10:08:25.987Z,589.00
2023-06-27T10:09:25.994Z,604.00
2023-06-27T10:10:25.987Z,588.00
2023-06-27T10:11:25.959Z,608.00
2023-06-27T10:12:25.988Z,658.00
2023-06-27T10:13:25.945Z,885.00
2023-06-27T10:14:25.932Z,1157.00
2023-06-27T10:15:25.917Z,1189.00
2023-06-27T10:16:25.901Z,1354.00
2023-06-27T10:17:25.920Z,1505.00
2023-06-27T10:18:25.871Z,1628.00
2023-06-27T10:19:25.933Z,1624.00
2023-06-27T10:20:25.977Z,1625.00
2023-06-27T10:21:26.011Z,1640.00
2023-06-27T10:22:26.060Z,1789.00
2023-06-27T10:23:26.077Z,1984.00
2023-06-27T10:24:26.121Z,2140.00
2023-06-27T10:25:26.136Z,2043.00
2023-06-27T10:26:26.138Z,2034.00
2023-06-27T10:27:26.108Z,1937.00
2023-06-27T10:28:26.125Z,1834.00
2023-06-27T10:29:26.068Z,1886.00
2023-06-27T10:30:26.038Z,1872.00
2023-06-27T10:31:26.083Z,1772.00
2023-06-27T10:32:26.039Z,1737.00
2023-06-27T10:33:25.992Z,1705.00
2023-06-27T10:34:25.980Z,1856.00
2023-06-27T10:35:25.970Z,1935.00
2023-06-27T10:36:25.924Z,1889.00
2023-06-27T10:37:25.925Z,1729.00
2023-06-27T10:38:26.007Z,1563.00
2023-06-27T10:39:25.983Z,1373.00
2023-06-27T10:40:26.014Z,1368.00
2023-06-27T10:41:26.098Z,1230.00
2023-06-27T10:42:26.123Z,1164.00
2023-06-27T10:43:26.175Z,1067.00
2023-06-27T10:44:26.250Z,1036.00
2023-06-27T10:45:26.279Z,919.00
2023-06-27T10:46:26.336Z,782.00
2023-06-27T10:47:27.258Z,785.00
2023-06-27T10:48:26.326Z,743.00
2023-06-27T10:49:26.308Z,721.00
2023-06-27T10:50:26.290Z,762.00
2023-06-27T10:51:26.274Z,648.00
2023-06-27T10:52:26.250Z,621.00
2023-06-27T10:53:26.236Z,693.00
2023-06-27T10:54:28.000Z,587.00
2023-06-27T10:55:26.202Z,574.00
2023-06-27T10:56:26.182Z,600.00
2023-06-27T10:57:26.175Z,641.00
2023-06-27T10:58:26.161Z,575.00
2023-06-27T10:59:26.144Z,615.00
2023-06-27T11:00:26.125Z,626.00
2023-06-27T11:01:26.106Z,595.00
2023-06-27T11:02:26.195Z,730.00
2023-06-27T11:03:26.346Z,856.00
2023-06-27T11:04:26.597Z,844.00
2023-06-27T11:05:26.302Z,777.00
2023-06-27T11:06:26.292Z,766.00
2023-06-27T11:07:26.322Z,840.00
2023-06-27T11:08:26.343Z,922.00
2023-06-27T11:09:26.371Z,828.00
2023-06-27T11:10:26.388Z,1059.00
2023-06-27T11:11:26.411Z,1124.00
2023-06-27T11:12:26.427Z,1123.00
2023-06-27T11:13:26.454Z,1272.00
2023-06-27T11:14:26.502Z,1400.00
2023-06-27T11:15:26.472Z,1601.00
2023-06-27T11:16:26.628Z,1732.00
2023-06-27T11:17:26.513Z,1790.00
2023-06-27T11:18:26.707Z,1805.00
2023-06-27T11:19:26.495Z,1571.00
2023-06-27T11:20:26.506Z,1484.00
2023-06-27T11:21:26.482Z,1419.00
2023-06-27T11:22:26.444Z,1419.00
2023-06-27T11:23:26.840Z,1440.00
2023-06-27T11:24:26.422Z,1508.00
2023-06-27T11:25:26.382Z,1643.00
2023-06-27T11:26:26.353Z,1876.00
2023-06-27T11:27:26.333Z,1980.00
2023-06-27T11:28:26.332Z,2055.00
2023-06-27T11:29:26.281Z,2108.00
2023-06-27T11:30:26.247Z,2130.00
2023-06-27T11:31:26.270Z,2129.00
2023-06-27T11:32:26.238Z,2123.00
2023-06-27T11:33:26.163Z,2132.00
2023-06-27T11:34:26.129Z,2131.00
2023-06-27T11:35:26.098Z,2138.00
2023-06-27T11:36:26.059Z,2162.00
2023-06-27T11:37:26.023Z,2207.00
2023-06-27T11:38:26.856Z,2275.00
2023-06-27T11:39:25.994Z,2335.00
2023-06-27T11:40:25.941Z,2360.00
2023-06-27T11:41:25.917Z,2377.00
2023-06-27T11:42:25.991Z,2399.00
2023-06-27T11:43:26.019Z,2413.00
2023-06-27T11:44:26.046Z,2421.00
2023-06-27T11:45:26.087Z,2454.00
2023-06-27T11:46:26.146Z,2469.00
2023-06-27T11:47:26.151Z,2470.00
2023-06-27T11:48:26.117Z,2475.00
2023-06-27T11:49:26.089Z,2493.00
2023-06-27T11:50:26.061Z,2521.00
2023-06-27T11:51:26.036Z,2579.00
2023-06-27T11:52:26.036Z,2608.00
2023-06-27T11:53:26.016Z,2629.00
2023-06-27T11:54:25.987Z,2654.00
2023-06-27T11:55:26.063Z,2674.00
2023-06-27T11:56:26.009Z,2675.00
2023-06-27T11:57:25.965Z,2678.00
2023-06-27T11:58:25.938Z,2676.00
2023-06-27T11:59:25.909Z,2682.00
2023-06-27T12:01:25.940Z,2702.00
2023-06-27T12:02:26.047Z,2771.00
2023-06-27T12:03:25.872Z,2824.00
2023-06-27T12:04:25.812Z,2875.00
2023-06-27T12:05:25.803Z,2889.00
2023-06-27T12:06:25.788Z,2973.00
2023-06-27T12:07:25.873Z,2997.00
2023-06-27T12:08:25.863Z,3048.00
2023-06-27T12:09:25.915Z,3080.00
2023-06-27T12:10:25.941Z,3102.00
2023-06-27T12:11:25.937Z,3105.00
2023-06-27T12:12:25.901Z,3124.00
2023-06-27T12:13:25.867Z,3109.00
2023-06-27T12:14:25.835Z,3143.00